createdAt,value
2023-03-26T14:38:49.405Z,98735.80
2023-03-26T14:41:47.519Z,98732.40
2023-03-26T14:44:56.178Z,98730.80
2023-03-26T14:47:26.897Z,98731.80
2023-03-26T14:50:42.308Z,98729.80
2023-03-26T14:53:37.773Z,98727.20
2023-03-26T14:56:15.662Z,98720.80
2023-03-26T14:58:55.316Z,98722.40
2023-03-26T15:01:27.626Z,98727.40
2023-03-26T15:04:28.888Z,98729.00
2023-03-26T15:07:33.359Z,98731.40
2023-03-26T15:10:36.302Z,98726.40
2023-03-26T15:13:26.092Z,98724.20
2023-03-26T15:16:20.780Z,98719.20
2023-03-26T15:19:38.615Z,98720.80
2023-03-26T15:23:06.439Z,98722.40
2023-03-26T15:26:17.339Z,98717.80
2023-03-26T15:28:50.830Z,98721.20
2023-03-26T15:31:42.161Z,98719.80
2023-03-26T15:35:01.989Z,98726.00
2023-03-26T15:37:52.192Z,98728.00
2023-03-26T15:40:51.528Z,98733.00
2023-03-26T15:43:25.749Z,98731.20
2023-03-26T15:46:51.514Z,98733.80
2023-03-26T15:50:01.554Z,98728.00
2023-03-26T15:53:09.440Z,98726.60
2023-03-26T15:56:20.393Z,98721.60
2023-03-26T15:58:56.212Z,98716.40
2023-03-26T16:01:44.167Z,98720.80
2023-03-26T16:04:29.100Z,98717.80
2023-03-26T16:07:15.864Z,98717.60
2023-03-26T16:10:13.617Z,98711.40
2023-03-26T16:13:26.349Z,98706.00
2023-03-26T16:16:22.419Z,98709.20
2023-03-26T16:19:18.239Z,98708.60
2023-03-26T16:22:01.949Z,98709.80
2023-03-26T16:24:37.041Z,98711.20
2023-03-26T16:27:14.905Z,98710.20
2023-03-26T16:30:31.060Z,98706.60
2023-03-26T16:33:18.111Z,98696.40
2023-03-26T16:36:05.369Z,98698.20
2023-03-26T16:39:04.735Z,98698.80
2023-03-26T16:41:46.421Z,98698.40
2023-03-26T16:44:19.997Z,98699.20
2023-03-26T16:47:01.911Z,98705.20
2023-03-26T16:50:08.542Z,98702.00
2023-03-26T16:53:02.981Z,98697.20
2023-03-26T16:56:41.697Z,98699.40
2023-03-26T17:00:06.129Z,98700.20
2023-03-26T17:02:45.308Z,98699.40
2023-03-26T17:05:33.809Z,98700.80
2023-03-26T17:08:46.529Z,98694.40
2023-03-26T17:12:13.248Z,98700.00
2023-03-26T17:15:07.798Z,98701.20
2023-03-26T17:18:10.180Z,98694.60
2023-03-26T17:20:51.355Z,98697.60
2023-03-26T17:24:03.630Z,98703.00
2023-03-26T17:26:58.091Z,98701.80
2023-03-26T17:29:34.878Z,98698.60
2023-03-26T17:32:14.567Z,98701.40
2023-03-26T17:34:50.961Z,98701.80
2023-03-26T17:37:23.613Z,98705.00
2023-03-26T17:39:51.062Z,98703.20
2023-03-26T17:42:27.818Z,98703.80
2023-03-26T17:45:00.965Z,98707.00
2023-03-26T17:47:53.552Z,98709.40
2023-03-26T17:50:35.414Z,98714.60
2023-03-26T17:53:16.234Z,98715.60
2023-03-26T17:55:46.019Z,98717.20
2023-03-26T18:01:45.573Z,98724.00
2023-03-26T18:04:45.703Z,98720.80
2023-03-26T18:07:44.362Z,98720.60
2023-03-26T18:10:49.005Z,98723.20
2023-03-26T18:13:52.251Z,98719.60
2023-03-26T18:16:37.289Z,98717.00
2023-03-26T18:19:19.590Z,98720.60
2023-03-26T18:21:52.618Z,98719.00
2023-03-26T18:24:40.688Z,98713.00
2023-03-26T18:27:19.072Z,98719.80
2023-03-26T18:30:03.457Z,98717.80
2023-03-26T18:32:41.158Z,98713.80
2023-03-26T18:35:22.186Z,98716.80
2023-03-26T18:37:58.518Z,98705.20
2023-03-26T18:40:41.767Z,98704.40
2023-03-26T18:43:32.548Z,98709.80
2023-03-26T18:46:04.633Z,98704.00
2023-03-26T18:48:33.762Z,98706.00
2023-03-26T18:51:06.266Z,98701.40
2023-03-26T18:54:00.064Z,98703.00
2023-03-26T18:56:47.668Z,98698.80
2023-03-26T18:59:32.121Z,98701.00
2023-03-26T19:02:13.552Z,98700.80
2023-03-26T19:04:47.070Z,98701.20
2023-03-26T19:37:52.053Z,98687.80
2023-03-26T19:40:30.430Z,98687.40
2023-03-26T19:43:02.315Z,98691.20
2023-03-26T19:45:35.213Z,98687.80
2023-03-26T19:48:15.307Z,98687.60
2023-03-26T19:51:01.023Z,98683.60
2023-03-26T19:53:53.586Z,98681.40
2023-03-26T19:56:23.350Z,98679.80
2023-03-26T19:58:52.300Z,98674.40
2023-03-26T20:01:26.967Z,98675.20
2023-03-26T20:04:01.163Z,98671.40
2023-03-26T20:06:42.625Z,98675.20
2023-03-26T20:09:13.761Z,98670.60
2023-03-26T20:11:42.853Z,98666.80
2023-03-26T20:14:17.352Z,98661.80
2023-03-26T20:16:46.593Z,98661.80
2023-03-26T20:19:15.812Z,98657.00
2023-03-26T20:21:45.179Z,98658.00
2023-03-26T20:24:17.806Z,98658.80
2023-03-26T20:26:47.199Z,98656.20
2023-03-26T20:29:16.361Z,98654.40
2023-03-26T20:31:45.658Z,98651.00
2023-03-26T20:34:20.076Z,98639.80
2023-03-26T20:36:55.610Z,98636.80
2023-03-26T20:39:25.748Z,98637.60
2023-03-26T20:41:56.574Z,98635.60
2023-03-26T20:44:27.058Z,98637.40
2023-03-26T20:46:59.151Z,98633.60
2023-03-26T20:49:29.597Z,98631.60
2023-03-26T20:51:59.939Z,98626.60
2023-03-26T20:54:30.696Z,98624.20
2023-03-26T20:57:00.280Z,98620.20
2023-03-26T20:59:30.249Z,98622.60
2023-03-26T21:01:59.867Z,98619.40
2023-03-26T21:04:29.094Z,98621.80
2023-03-26T21:07:06.983Z,98618.20
2023-03-26T21:09:45.056Z,98620.80
2023-03-26T21:12:35.395Z,98617.20
2023-03-26T21:15:13.411Z,98614.20
2023-03-26T21:17:55.090Z,98615.80
2023-03-26T21:20:28.250Z,98622.40
2023-03-26T21:23:17.070Z,98628.00
2023-03-26T21:26:15.517Z,98640.00
2023-03-26T21:28:50.609Z,98641.00
2023-03-26T21:31:24.629Z,98635.80
2023-03-26T21:33:55.277Z,98629.60
2023-03-26T21:36:24.618Z,98620.20
2023-03-26T21:38:55.048Z,98617.40
2023-03-26T21:41:31.413Z,98615.00
2023-03-26T21:44:00.830Z,98613.60
2023-03-26T21:46:32.046Z,98604.40
2023-03-26T21:49:01.361Z,98602.00
2023-03-26T21:51:30.753Z,98602.40
2023-03-26T21:54:00.304Z,98604.60
2023-03-26T21:57:06.458Z,98598.60
